Pagrindinis puslapis
METAR-TAF:

METAR-TAF

Oro uostai :

Katanija, Italija

platuma: 37-28N, ilguma: 015-03E, Aukštis: 11 m

Dabartinis oras

Ataskaita buvo paskelbta 37 minutes, ne 10:50 UTC
Vėjas 13 kt iš Rytų/Pietryčių
Temperatūra 26°C
Drėgmė 65%
Slėgis 1022 hPa
Matomumas 10 km arba daugiau
Išsisklaidę debesys ne aukštis 2500 ft

METAR: LICC 211050Z 11013KT 9999 SCT025 26/19 Q1022

Laikas: 13:27 (11:27 UTC)

Prognozė

Ataskaita buvo paskelbta 6 valandos ir 27 minutes, ne 05:00 UTC
Prognozė galioja nuo 21 metu 06 UTC su 22 metu 06 UTC
Vėjas 4 kt nuo kintamojo kryptimis
Matomumas 10 km arba daugiau
Išsisklaidę debesys ne aukštis 3000 ft
Tapsmas
nuo 21 metu 08 UTC su 21 metu 10 UTC
Vėjas 12 kt iš Rytų
Tapsmas
nuo 21 metu 18 UTC su 21 metu 20 UTC
Vėjas 4 kt nuo kintamojo kryptimis

TAF: LICC 210500Z 2106/2206 VRB04KT 9999 SCT030 BECMG 2108/2110 08012KT BECMG 2118/2120 VRB04KT

Orai ataskaitas ir orų prognozės (METAR, TAF).

turimą stotys yra geltonos ir raudonos taškus žemėlapyje.

Perkelti pele per norėdami pamatyti stoties vardą.

Tada spustelėkite, norėdami matyti oro stebėjimo ir prognozės.

Norėdami pakeisti žemėlapį: spustelėkite ant žalios mygtukų su juodo kryžiaus žemyn,; žalią mygtuką su brūkšneliu, jei norite nutolinti; arba žalių rodyklių gretimoms žemėlapius.


METAR-TAF: